Time;durP1;ratioP1;P1;durP2;ratioP2;P2;SDS_P1;SDS_P2;PMS_P1;PMS_P2;Temp;Humidity;BMP_temperature;BMP_pressure;BME280_temperature;BME280_humidity;BME280_pressure;Samples;Min_cycle;Max_cycle;Signal;HPM_P1;HPM_P2
2021/05/23 00:02:33;;;;;;;;;;;;;;;21.40;52.60;101070.88;5053540;28;1248;-63
2021/05/23 00:05:19;;;;;;;;;;;;;;;21.31;51.63;101082.06;5068524;28;1902;-63
2021/05/23 00:08:07;;;;;;;;;;;;;;;21.25;50.97;101072.69;5068791;28;943;-63
2021/05/23 00:10:52;;;;;;;;;;;;;;;21.25;50.47;101063.88;5069569;28;1276;-63
2021/05/23 00:13:39;;;;;;;;;;;;;;;21.21;50.10;101054.44;5069506;28;994;-63
2021/05/23 00:16:26;;;;;;;;;;;;;;;21.08;49.80;101054.34;5069043;28;1281;-62
2021/05/23 00:19:11;;;;;;;;;;;;;;;21.13;49.42;101046.97;5068908;28;744;-64
2021/05/23 00:21:57;;;;;;;;;;;;;;;21.13;49.44;101044.31;5068604;28;1366;-64
2021/05/23 00:24:42;;;;;;;;;;;;;;;21.10;48.74;101052.47;5068530;28;1961;-64
2021/05/23 00:27:27;;;;;;;;;;;;;;;21.12;48.84;101061.19;5068220;28;1279;-63
2021/05/23 00:30:13;;;;;;;;;;;;;;;21.01;48.58;101060.94;5068333;28;680;-64
2021/05/23 00:32:59;;;;;;;;;;;;;;;20.98;48.83;101058.47;5068827;28;1142;-63
2021/05/23 00:35:44;;;;;;;;;;;;;;;21.04;48.67;101047.50;5053438;28;1380;-63
2021/05/23 00:38:30;;;;;;;;;;;;;;;21.01;48.36;101042.41;5072933;28;1466;-63
2021/05/23 00:41:15;;;;;;;;;;;;;;;21.02;48.36;101046.75;5072331;28;1420;-63
2021/05/23 00:44:01;;;;;;;;;;;;;;;20.93;48.38;101063.22;5072738;28;1060;-63
2021/05/23 00:46:46;;;;;;;;;;;;;;;20.98;48.30;101036.44;5072127;28;1380;-64
2021/05/23 00:49:36;;;;;;;;;;;;;;;20.97;47.90;101030.31;5072388;28;627;-63
2021/05/23 00:52:22;;;;;;;;;;;;;;;20.99;48.13;101028.41;5071394;28;1271;-63
2021/05/23 00:55:08;;;;;;;;;;;;;;;20.91;48.11;101016.59;5070946;28;628;-63
2021/05/23 00:57:53;;;;;;;;;;;;;;;20.95;48.04;101007.50;5071641;28;1020;-64
2021/05/23 01:00:42;;;;;;;;;;;;;;;20.91;47.80;101004.22;5071618;28;1343;-64
2021/05/23 01:03:30;;;;;;;;;;;;;;;20.87;47.82;101012.41;5071994;28;1048;-64
2021/05/23 01:06:15;;;;;;;;;;;;;;;20.79;47.92;101004.97;5072090;28;1973;-63
2021/05/23 01:09:01;;;;;;;;;;;;;;;20.69;48.07;101007.31;5056468;28;1055;-62
2021/05/23 01:11:47;;;;;;;;;;;;;;;20.77;48.01;101014.78;5071292;28;1362;-63
2021/05/23 01:14:50;;;;;;;;;;;;;;;20.80;47.92;101013.72;5056254;28;614;-63
2021/05/23 01:17:40;;;;;;;;;;;;;;;20.79;47.82;101004.97;5070871;28;1294;-64
2021/05/23 01:20:27;;;;;;;;;;;;;;;20.74;47.75;101009.66;5071567;28;1318;-63
2021/05/23 01:23:22;;;;;;;;;;;;;;;20.76;47.68;101005.16;5071805;28;1087;-63
2021/05/23 01:26:10;;;;;;;;;;;;;;;20.73;47.80;101025.66;5071492;28;1910;-64
2021/05/23 01:28:57;;;;;;;;;;;;;;;20.64;47.67;101024.41;5071841;28;1109;-64
2021/05/23 01:31:42;;;;;;;;;;;;;;;20.63;47.79;101015.63;5071331;28;1224;-63
2021/05/23 01:34:28;;;;;;;;;;;;;;;20.58;47.62;101011.53;5071290;28;718;-64
2021/05/23 01:37:15;;;;;;;;;;;;;;;20.52;48.16;101012.75;5071448;28;1398;-64
2021/05/23 01:40:00;;;;;;;;;;;;;;;20.59;47.96;101019.41;5070965;28;671;-63
2021/05/23 01:42:47;;;;;;;;;;;;;;;20.62;47.75;101007.75;5070817;28;1039;-64
2021/05/23 01:45:33;;;;;;;;;;;;;;;20.59;47.75;101008.81;5071119;28;1968;-63
2021/05/23 01:48:18;;;;;;;;;;;;;;;20.66;47.91;101009.28;5070801;28;1135;-64
2021/05/23 01:51:07;;;;;;;;;;;;;;;20.61;47.38;101006.06;5070671;28;1295;-64
2021/05/23 01:53:52;;;;;;;;;;;;;;;20.51;47.78;101004.94;5071231;28;1152;-64
2021/05/23 01:56:38;;;;;;;;;;;;;;;20.57;47.85;100991.31;5055554;28;1264;-63
2021/05/23 01:59:23;;;;;;;;;;;;;;;20.49;47.67;100982.97;5070912;28;672;-64
2021/05/23 02:02:09;;;;;;;;;;;;;;;20.53;47.63;100989.78;5070569;28;1260;-64
2021/05/23 02:04:54;;;;;;;;;;;;;;;20.54;47.61;100988.88;5070642;28;1910;-64
2021/05/23 02:07:40;;;;;;;;;;;;;;;20.55;47.61;101003.78;5070732;28;1305;-64
2021/05/23 02:10:25;;;;;;;;;;;;;;;20.56;47.63;101002.84;5070479;28;1299;-62
2021/05/23 02:13:11;;;;;;;;;;;;;;;20.42;47.88;101008.97;5070409;28;1120;-65
2021/05/23 02:15:56;;;;;;;;;;;;;;;20.46;47.50;101022.84;5069607;28;1386;-63
2021/05/23 02:18:42;;;;;;;;;;;;;;;20.44;47.91;101035.34;5070552;28;1152;-64
2021/05/23 02:21:28;;;;;;;;;;;;;;;20.44;48.03;101045.91;5070514;28;1280;-62
2021/05/23 02:24:13;;;;;;;;;;;;;;;20.31;48.29;101055.50;5070605;28;741;-65
2021/05/23 02:26:58;;;;;;;;;;;;;;;20.41;48.16;101065.47;5070373;28;1918;-65
2021/05/23 02:29:43;;;;;;;;;;;;;;;20.40;48.01;101062.91;5054932;28;651;-64
2021/05/23 02:32:28;;;;;;;;;;;;;;;20.33;48.13;101058.94;5054820;28;1288;-64
2021/05/23 02:35:14;;;;;;;;;;;;;;;20.28;48.24;101061.84;5070043;28;699;-64
2021/05/23 02:38:01;;;;;;;;;;;;;;;20.30;48.28;101069.69;5054641;28;1594;-64
2021/05/23 02:40:47;;;;;;;;;;;;;;;20.27;48.20;101059.31;5054794;28;1306;-64
2021/05/23 02:43:32;;;;;;;;;;;;;;;20.34;48.17;101047.41;5070287;28;1056;-64
2021/05/23 02:46:18;;;;;;;;;;;;;;;20.25;48.22;101032.03;5054522;28;1910;-65
2021/05/23 02:49:03;;;;;;;;;;;;;;;20.30;48.14;101043.25;5070098;28;951;-64
2021/05/23 02:51:49;;;;;;;;;;;;;;;20.31;47.85;101034.34;5069837;28;1268;-62
2021/05/23 02:54:34;;;;;;;;;;;;;;;20.23;48.32;101028.63;5069984;28;700;-64
2021/05/23 02:57:19;;;;;;;;;;;;;;;20.12;48.13;101032.75;5054214;28;1300;-64
2021/05/23 03:00:05;;;;;;;;;;;;;;;20.16;48.21;101036.94;5068608;28;587;-64
2021/05/23 03:02:51;;;;;;;;;;;;;;;20.10;48.41;101033.78;5069196;28;996;-64
2021/05/23 03:05:37;;;;;;;;;;;;;;;20.14;48.38;101044.09;5068740;28;1961;-64
2021/05/23 03:08:22;;;;;;;;;;;;;;;20.13;48.51;101066.19;5069581;28;1095;-64
2021/05/23 03:11:08;;;;;;;;;;;;;;;20.18;48.71;101065.94;5069475;28;1306;-65
2021/05/23 03:13:53;;;;;;;;;;;;;;;20.11;48.63;101059.28;5069864;28;1192;-64
2021/05/23 03:16:38;;;;;;;;;;;;;;;20.15;49.01;101061.66;5068841;28;1353;-64
2021/05/23 03:19:24;;;;;;;;;;;;;;;20.19;48.98;101075.56;5069337;28;805;-63
2021/05/23 03:22:09;;;;;;;;;;;;;;;20.19;48.91;101068.50;5069326;28;1354;-64
2021/05/23 03:24:54;;;;;;;;;;;;;;;20.22;49.08;101071.88;5069193;28;1965;-64
2021/05/23 03:27:40;;;;;;;;;;;;;;;20.13;49.37;101067.97;5069265;28;1279;-64
2021/05/23 03:30:30;;;;;;;;;;;;;;;20.18;49.33;101069.41;5054042;28;1287;-65
2021/05/23 03:33:15;;;;;;;;;;;;;;;20.18;49.16;101063.31;5069439;28;1087;-64
2021/05/23 03:36:00;;;;;;;;;;;;;;;20.19;49.20;101054.41;5069171;28;1361;-64
2021/05/23 03:38:46;;;;;;;;;;;;;;;20.18;49.36;101082.66;5069187;28;1062;-65
2021/05/23 03:41:32;;;;;;;;;;;;;;;20.16;49.29;101079.25;5053714;28;1263;-64
2021/05/23 03:44:17;;;;;;;;;;;;;;;20.17;49.28;101069.53;5069007;28;714;-65
2021/05/23 03:47:03;;;;;;;;;;;;;;;20.12;49.50;101071.59;5069004;28;1973;-64
2021/05/23 03:49:48;;;;;;;;;;;;;;;20.09;49.11;101075.25;5068559;28;636;-64
2021/05/23 03:52:34;;;;;;;;;;;;;;;20.15;49.14;101072.25;5068326;28;1303;-64
2021/05/23 03:55:20;;;;;;;;;;;;;;;20.16;48.98;101083.69;5068706;28;647;-64
2021/05/23 03:58:07;;;;;;;;;;;;;;;20.19;49.02;101094.94;5068503;28;1030;-64
2021/05/23 04:00:52;;;;;;;;;;;;;;;20.16;48.75;101089.81;5068473;28;1286;-64
2021/05/23 04:03:38;;;;;;;;;;;;;;;20.20;48.74;101095.81;5068944;28;1065;-64
2021/05/23 04:06:23;;;;;;;;;;;;;;;20.12;48.86;101108.63;5068340;28;1902;-64
2021/05/23 04:09:09;;;;;;;;;;;;;;;20.14;48.90;101115.53;5068573;28;946;-64
2021/05/23 04:11:54;;;;;;;;;;;;;;;20.12;48.67;101122.66;5072635;28;1381;-64
2021/05/23 04:14:39;;;;;;;;;;;;;;;20.02;48.85;101118.88;5072971;28;655;-64
2021/05/23 04:17:27;;;;;;;;;;;;;;;20.09;49.01;101111.44;5072576;28;1245;-65
2021/05/23 04:20:14;;;;;;;;;;;;;;;20.08;48.69;101100.00;5072925;28;640;-64
2021/05/23 04:22:59;;;;;;;;;;;;;;;20.08;48.68;101097.34;5073048;28;1107;-64
2021/05/23 04:25:45;;;;;;;;;;;;;;;20.04;48.55;101093.16;5072485;28;1906;-64
2021/05/23 04:28:30;;;;;;;;;;;;;;;20.02;48.62;101099.50;5072806;28;1122;-64
2021/05/23 04:31:16;;;;;;;;;;;;;;;20.03;48.55;101107.31;5072473;28;1337;-64
2021/05/23 04:34:01;;;;;;;;;;;;;;;20.06;48.63;101114.25;5072883;28;1132;-64
2021/05/23 04:36:46;;;;;;;;;;;;;;;20.04;48.33;101102.88;5057040;28;1418;-64
2021/05/23 04:39:32;;;;;;;;;;;;;;;20.05;48.19;101113.41;5072589;28;599;-65
2021/05/23 04:42:17;;;;;;;;;;;;;;;20.00;48.11;101117.25;5056991;28;1342;-64
2021/05/23 04:45:22;;;;;;;;;;;;;;;20.03;48.23;101104.69;5072268;28;1906;-64
2021/05/23 04:48:08;;;;;;;;;;;;;;;20.06;48.29;101099.22;5072187;28;1062;-64
2021/05/23 04:50:53;;;;;;;;;;;;;;;20.06;47.96;101107.16;5072073;28;1255;-64
2021/05/23 04:53:40;;;;;;;;;;;;;;;20.12;48.23;101111.25;5071538;28;1484;-64
2021/05/23 04:56:25;;;;;;;;;;;;;;;20.10;48.86;101113.97;5071978;28;1252;-64
2021/05/23 04:59:14;;;;;;;;;;;;;;;20.08;49.43;101113.22;5071826;28;707;-64
2021/05/23 05:01:59;;;;;;;;;;;;;;;20.07;49.63;101108.88;5071660;28;1294;-64
2021/05/23 05:04:45;;;;;;;;;;;;;;;20.02;50.02;101096.84;5072009;28;699;-65
2021/05/23 05:07:32;;;;;;;;;;;;;;;20.08;50.00;101093.84;5071852;28;1906;-65
2021/05/23 05:10:17;;;;;;;;;;;;;;;20.07;50.16;101079.78;5072289;28;660;-64
2021/05/23 05:13:03;;;;;;;;;;;;;;;20.09;50.32;101077.06;5072063;28;914;-64
2021/05/23 05:15:48;;;;;;;;;;;;;;;20.05;50.32;101076.38;5071017;28;1288;-64
2021/05/23 05:18:34;;;;;;;;;;;;;;;20.06;50.59;101078.06;5071777;28;1137;-65
2021/05/23 05:21:20;;;;;;;;;;;;;;;20.09;50.62;101090.28;5071555;28;1375;-63
2021/05/23 05:24:05;;;;;;;;;;;;;;;20.09;50.55;101095.56;5069932;28;1326;-63
2021/05/23 05:26:50;;;;;;;;;;;;;;;20.09;50.56;101093.75;5053355;28;1971;-62
2021/05/23 05:29:36;;;;;;;;;;;;;;;20.08;50.67;101085.91;5071541;28;616;-63
2021/05/23 05:32:21;;;;;;;;;;;;;;;20.10;50.81;101084.03;5071400;28;1354;-63
2021/05/23 05:35:06;;;;;;;;;;;;;;;20.05;50.86;101097.53;5071332;28;624;-63
2021/05/23 05:37:52;;;;;;;;;;;;;;;20.09;50.73;101100.84;5070924;28;1455;-62
2021/05/23 05:40:37;;;;;;;;;;;;;;;20.09;50.59;101112.25;5071282;28;1339;-63
2021/05/23 05:43:24;;;;;;;;;;;;;;;20.07;50.83;101122.09;5071627;28;960;-63
2021/05/23 05:46:09;;;;;;;;;;;;;;;20.06;50.96;101138.88;5070949;28;1975;-63
2021/05/23 05:48:55;;;;;;;;;;;;;;;20.02;50.77;101144.44;5071240;28;1147;-63
2021/05/23 05:51:40;;;;;;;;;;;;;;;20.02;50.99;101142.66;5070538;28;1188;-64
2021/05/23 05:54:25;;;;;;;;;;;;;;;20.02;51.00;101133.88;5070891;28;672;-64
2021/05/23 05:57:11;;;;;;;;;;;;;;;19.95;50.98;101122.78;5070400;28;1275;-62
2021/05/23 06:00:04;;;;;;;;;;;;;;;20.03;50.85;101125.84;5056063;28;749;-63
2021/05/23 06:02:49;;;;;;;;;;;;;;;19.95;51.14;101138.63;5070890;28;1105;-63
2021/05/23 06:05:35;;;;;;;;;;;;;;;19.96;51.40;101150.06;5070591;28;1968;-63
2021/05/23 06:08:21;;;;;;;;;;;;;;;19.95;51.32;101151.88;5070572;28;1139;-63
2021/05/23 06:11:06;;;;;;;;;;;;;;;20.03;51.42;101156.75;5070638;28;1288;-63
2021/05/23 06:13:52;;;;;;;;;;;;;;;20.03;51.24;101162.84;5070942;28;1208;-64
2021/05/23 06:16:37;;;;;;;;;;;;;;;20.01;51.31;101159.44;5070423;28;1297;-63
2021/05/23 06:19:22;;;;;;;;;;;;;;;20.03;51.30;101169.97;5070417;28;632;-64
2021/05/23 06:22:08;;;;;;;;;;;;;;;20.06;51.56;101178.56;5069950;28;1472;-63
2021/05/23 06:24:53;;;;;;;;;;;;;;;20.02;51.77;101186.75;5068828;28;715;-66
2021/05/23 06:27:39;;;;;;;;;;;;;;;20.08;51.62;101191.69;5069284;28;1906;-63
2021/05/23 06:30:24;;;;;;;;;;;;;;;20.11;51.87;101179.16;5069584;28;1315;-63
2021/05/23 06:33:10;;;;;;;;;;;;;;;20.15;51.98;101187.78;5069143;28;1057;-62
2021/05/23 06:35:55;;;;;;;;;;;;;;;20.18;51.91;101193.75;5068940;28;1287;-62
2021/05/23 06:38:40;;;;;;;;;;;;;;;20.23;52.10;101200.56;5069212;28;1060;-61
2021/05/23 06:41:25;;;;;;;;;;;;;;;20.27;52.09;101186.28;5069377;28;1268;-62
2021/05/23 06:44:11;;;;;;;;;;;;;;;20.25;52.01;101183.66;5069379;28;707;-63
2021/05/23 06:46:56;;;;;;;;;;;;;;;20.26;52.07;101177.47;5068444;28;1971;-62
2021/05/23 06:49:41;;;;;;;;;;;;;;;20.34;52.17;101171.75;5068817;28;690;-65
2021/05/23 06:52:27;;;;;;;;;;;;;;;20.35;52.40;101178.75;5065781;28;1717;-64
2021/05/23 06:55:12;;;;;;;;;;;;;;;20.35;52.37;101171.66;5052082;28;1039;-67
2021/05/23 06:57:58;;;;;;;;;;;;;;;20.40;52.36;101168.75;5067687;28;1088;-67
2021/05/23 07:00:43;;;;;;;;;;;;;;;20.39;52.51;101170.56;5067254;28;1398;-65
2021/05/23 07:03:29;;;;;;;;;;;;;;;20.39;52.39;101167.06;5067297;28;1158;-63
2021/05/23 07:06:14;;;;;;;;;;;;;;;20.42;52.62;101169.53;5067039;28;1906;-64
2021/05/23 07:08:59;;;;;;;;;;;;;;;20.42;52.52;101161.59;5067459;28;1146;-63
2021/05/23 07:11:44;;;;;;;;;;;;;;;20.43;52.66;101165.91;5066835;28;1362;-65
2021/05/23 07:14:30;;;;;;;;;;;;;;;20.43;52.55;101163.28;5066183;28;687;-64
2021/05/23 07:17:15;;;;;;;;;;;;;;;20.44;52.59;101163.22;5066433;28;1272;-63
2021/05/23 07:20:01;;;;;;;;;;;;;;;20.47;52.82;101162.19;5067362;28;636;-65
2021/05/23 07:22:46;;;;;;;;;;;;;;;20.49;52.55;101154.97;5066770;28;1530;-64
2021/05/23 07:25:33;;;;;;;;;;;;;;;20.43;52.43;101150.03;5060024;28;1264;-63
2021/05/23 07:28:18;;;;;;;;;;;;;;;20.39;52.45;101153.84;5067163;28;1057;-65
2021/05/23 07:31:04;;;;;;;;;;;;;;;20.43;51.65;101155.34;5065585;28;1309;-62
2021/05/23 07:33:49;;;;;;;;;;;;;;;20.34;51.50;101155.88;5067167;28;1112;-63
2021/05/23 07:36:35;;;;;;;;;;;;;;;20.21;51.78;101161.00;5070336;28;1556;-61
2021/05/23 07:39:20;;;;;;;;;;;;;;;20.05;52.03;101155.72;5087015;28;959;-60
2021/05/23 07:42:05;;;;;;;;;;;;;;;20.05;51.82;101154.84;5087259;28;1259;-62
2021/05/23 07:44:51;;;;;;;;;;;;;;;20.00;51.79;101152.44;5086149;28;679;-62
2021/05/23 07:47:36;;;;;;;;;;;;;;;19.95;51.74;101143.94;5071705;28;1906;-63
2021/05/23 07:50:22;;;;;;;;;;;;;;;19.96;51.82;101153.56;5087206;28;1354;-62
2021/05/23 07:53:07;;;;;;;;;;;;;;;20.01;51.69;101154.16;5087306;28;1155;-62
2021/05/23 07:55:53;;;;;;;;;;;;;;;20.05;51.63;101160.13;5077414;28;1542;-63
2021/05/23 07:58:38;;;;;;;;;;;;;;;20.08;51.50;101160.81;5067947;28;1058;-66
2021/05/23 08:01:24;;;;;;;;;;;;;;;20.02;51.51;101165.59;5068878;28;1276;-63
2021/05/23 08:04:09;;;;;;;;;;;;;;;20.12;51.30;101157.06;5068496;28;958;-64
2021/05/23 08:06:54;;;;;;;;;;;;;;;20.25;50.72;101156.34;5069335;28;1918;-64
2021/05/23 08:09:39;;;;;;;;;;;;;;;20.28;50.38;101164.16;5070212;28;900;-65
2021/05/23 08:12:25;;;;;;;;;;;;;;;20.28;50.47;101169.44;5053361;28;1311;-64
2021/05/23 08:15:13;;;;;;;;;;;;;;;20.29;50.14;101166.72;5068299;28;714;-65
2021/05/23 08:17:59;;;;;;;;;;;;;;;20.32;50.12;101157.75;5053073;28;1128;-67
2021/05/23 08:20:46;;;;;;;;;;;;;;;20.28;49.82;101161.50;5053512;28;1350;-65
2021/05/23 08:23:31;;;;;;;;;;;;;;;20.30;49.86;101164.94;5068313;28;1547;-66
2021/05/23 08:26:17;;;;;;;;;;;;;;;20.28;50.16;101172.09;5068439;28;1906;-64
2021/05/23 08:29:03;;;;;;;;;;;;;;;20.30;49.90;101167.59;5068519;28;1499;-65
2021/05/23 08:31:48;;;;;;;;;;;;;;;20.30;49.73;101178.16;5068611;28;1288;-65
2021/05/23 08:34:33;;;;;;;;;;;;;;;20.31;50.08;101177.22;5048579;28;724;-67
2021/05/23 08:37:19;;;;;;;;;;;;;;;20.24;50.90;101175.84;5033220;28;1367;-65
2021/05/23 08:40:05;;;;;;;;;;;;;;;20.29;51.20;101176.44;5066604;28;690;-66
2021/05/23 08:42:51;;;;;;;;;;;;;;;20.30;51.62;101175.53;5068453;28;1042;-65
2021/05/23 08:45:37;;;;;;;;;;;;;;;20.55;51.44;101186.38;5068480;28;1291;-68
2021/05/23 08:48:22;;;;;;;;;;;;;;;20.55;51.54;101183.75;5068149;28;1910;-65
2021/05/23 08:51:08;;;;;;;;;;;;;;;20.55;51.64;101184.59;5068382;28;1280;-65
2021/05/23 08:53:54;;;;;;;;;;;;;;;20.59;51.95;101190.56;5068004;28;1057;-64
2021/05/23 08:56:40;;;;;;;;;;;;;;;20.60;51.84;101195.81;5068022;28;1369;-67
2021/05/23 08:59:26;;;;;;;;;;;;;;;20.64;51.52;101209.69;5072332;28;672;-67
2021/05/23 09:02:11;;;;;;;;;;;;;;;20.68;52.40;101224.47;5071450;28;1284;-65
2021/05/23 09:04:57;;;;;;;;;;;;;;;20.71;52.02;101234.88;5071683;28;731;-66
2021/05/23 09:07:46;;;;;;;;;;;;;;;20.78;52.83;101238.88;5071917;28;1971;-65
2021/05/23 09:10:32;;;;;;;;;;;;;;;20.76;52.80;101238.13;5071588;28;1278;-63
2021/05/23 09:13:29;;;;;;;;;;;;;;;20.82;53.27;101237.78;5071841;28;1102;-61
2021/05/23 09:16:14;;;;;;;;;;;;;;;20.86;53.62;101252.53;5071853;28;1189;-64
2021/05/23 09:19:00;;;;;;;;;;;;;;;20.88;53.58;101250.66;5056262;28;1624;-62
2021/05/23 09:21:45;;;;;;;;;;;;;;;21.02;53.67;101257.78;5069880;28;1431;-63
2021/05/23 09:24:31;;;;;;;;;;;;;;;21.06;53.82;101261.97;5073059;28;1706;-66
2021/05/23 09:27:17;;;;;;;;;;;;;;;21.02;53.71;101271.03;5042023;28;1910;-64
2021/05/23 09:30:11;;;;;;;;;;;;;;;20.98;53.49;101273.00;5071924;28;1098;-63
2021/05/23 09:32:57;;;;;;;;;;;;;;;21.02;53.88;101277.19;5085465;28;1205;-65
2021/05/23 09:35:43;;;;;;;;;;;;;;;21.03;53.58;101283.34;5089685;28;1262;-64
2021/05/23 09:38:29;;;;;;;;;;;;;;;21.01;53.70;101280.75;5089884;28;1299;-67
2021/05/23 09:41:21;;;;;;;;;;;;;;;21.00;53.06;101279.06;5076216;28;1295;-64
2021/05/23 09:44:17;;;;;;;;;;;;;;;20.97;53.49;101279.25;5069641;28;962;-63
2021/05/23 09:47:09;;;;;;;;;;;;;;;20.99;54.22;101280.00;5069758;28;1977;-65
2021/05/23 09:49:56;;;;;;;;;;;;;;;21.06;54.07;101283.16;5069047;28;901;-61
2021/05/23 09:52:41;;;;;;;;;;;;;;;21.06;54.29;101277.88;5068932;28;1247;-60
2021/05/23 09:55:27;;;;;;;;;;;;;;;21.13;54.71;101276.56;5069228;28;1213;-61
2021/05/23 09:58:20;;;;;;;;;;;;;;;21.08;54.50;101276.84;5069077;28;1058;-62
2021/05/23 10:01:07;;;;;;;;;;;;;;;21.05;54.52;101277.00;5069031;28;1283;-62
2021/05/23 10:03:55;;;;;;;;;;;;;;;21.13;53.81;101274.78;5055160;28;1165;-63
2021/05/23 10:06:40;;;;;;;;;;;;;;;21.06;52.08;101268.13;5070015;28;1937;-65
2021/05/23 10:09:27;;;;;;;;;;;;;;;21.04;52.91;101259.41;5070367;28;656;-63
2021/05/23 10:12:14;;;;;;;;;;;;;;;21.04;52.51;101262.03;5070600;28;1299;-62
2021/05/23 10:15:00;;;;;;;;;;;;;;;21.05;51.69;101263.75;5069968;28;664;-61
2021/05/23 10:18:06;;;;;;;;;;;;;;;21.05;51.81;101266.41;5070155;28;1149;-62
2021/05/23 10:20:53;;;;;;;;;;;;;;;21.08;51.56;101260.97;5070537;28;1256;-65
2021/05/23 10:23:42;;;;;;;;;;;;;;;21.11;51.20;101255.50;5069838;28;1203;-66
2021/05/23 10:26:28;;;;;;;;;;;;;;;21.11;52.04;101265.22;5070035;28;1375;-63
2021/05/23 10:29:13;;;;;;;;;;;;;;;21.18;52.41;101250.69;5054994;28;1222;-64
2021/05/23 10:32:16;;;;;;;;;;;;;;;21.11;52.92;101257.28;5069939;28;1307;-62
2021/05/23 10:35:13;;;;;;;;;;;;;;;21.17;54.22;101249.81;5070223;28;664;-63
2021/05/23 10:38:05;;;;;;;;;;;;;;;21.20;54.27;101247.00;5069968;28;1420;-60
2021/05/23 10:40:51;;;;;;;;;;;;;;;21.27;54.37;101257.22;5069889;28;1370;-61
2021/05/23 10:43:36;;;;;;;;;;;;;;;21.24;54.30;101251.19;5070288;28;1046;-63
2021/05/23 10:46:22;;;;;;;;;;;;;;;21.24;54.35;101255.63;5069926;28;1263;-61
2021/05/23 10:49:07;;;;;;;;;;;;;;;21.21;53.03;101250.50;5068886;28;1417;-59
2021/05/23 10:51:55;;;;;;;;;;;;;;;21.26;53.78;101253.72;5068786;28;1228;-60
2021/05/23 10:54:40;;;;;;;;;;;;;;;21.21;53.83;101253.16;5067292;28;644;-62
2021/05/23 10:57:26;;;;;;;;;;;;;;;21.21;54.48;101261.97;5066979;28;1492;-64
2021/05/23 11:00:19;;;;;;;;;;;;;;;21.17;54.22;101270.16;5062146;28;656;-63
2021/05/23 11:03:11;;;;;;;;;;;;;;;21.14;54.22;101281.78;5068754;28;1038;-63
2021/05/23 11:06:01;;;;;;;;;;;;;;;21.12;54.18;101289.00;5068429;28;1394;-63
2021/05/23 11:08:48;;;;;;;;;;;;;;;21.11;53.92;101287.28;5068597;28;1960;-64
2021/05/23 11:11:33;;;;;;;;;;;;;;;21.13;54.19;101295.97;5053016;28;1362;-63
2021/05/23 11:14:23;;;;;;;;;;;;;;;21.14;54.52;101300.34;5068380;28;730;-63
2021/05/23 11:17:10;;;;;;;;;;;;;;;21.13;54.39;101301.28;5052754;28;1225;-62
2021/05/23 11:19:56;;;;;;;;;;;;;;;21.11;54.18;101307.59;5067905;28;675;-63
2021/05/23 11:22:42;;;;;;;;;;;;;;;21.10;54.01;101296.16;5068492;28;1287;-63
2021/05/23 11:25:28;;;;;;;;;;;;;;;21.10;54.07;101290.84;5068344;28;1279;-62
2021/05/23 11:28:18;;;;;;;;;;;;;;;21.11;53.92;101287.28;5068364;28;1929;-62
2021/05/23 11:31:04;;;;;;;;;;;;;;;21.10;54.24;101288.22;5068681;28;1306;-62
2021/05/23 11:33:50;;;;;;;;;;;;;;;21.10;53.93;101290.84;5069126;28;1150;-62
2021/05/23 11:36:39;;;;;;;;;;;;;;;21.10;54.18;101280.25;5067488;28;1434;-63
2021/05/23 11:39:25;;;;;;;;;;;;;;;21.10;53.79;101284.69;5068086;28;636;-63
2021/05/23 11:42:11;;;;;;;;;;;;;;;21.09;53.66;101281.22;5067546;28;1565;-63
2021/05/23 11:44:57;;;;;;;;;;;;;;;21.11;53.95;101283.78;5068183;28;624;-63
2021/05/23 11:47:43;;;;;;;;;;;;;;;21.11;54.01;101284.63;5068640;28;1913;-64
2021/05/23 11:50:28;;;;;;;;;;;;;;;21.12;53.92;101304.03;5068085;28;1293;-64
2021/05/23 11:53:13;;;;;;;;;;;;;;;21.11;53.83;101302.31;5067506;28;1127;-63
2021/05/23 11:56:04;;;;;;;;;;;;;;;21.11;53.88;101299.66;5067796;28;1358;-63
2021/05/23 11:58:53;;;;;;;;;;;;;;;21.12;53.95;101302.25;5066938;28;1140;-65
2021/05/23 12:01:40;;;;;;;;;;;;;;;21.17;54.67;101292.22;5049265;28;1367;-63
2021/05/23 12:04:25;;;;;;;;;;;;;;;21.22;54.27;101295.44;5066402;28;656;-66
2021/05/23 12:07:10;;;;;;;;;;;;;;;21.23;54.26;101291.84;5066812;28;1983;-65
2021/05/23 12:09:57;;;;;;;;;;;;;;;21.23;54.68;101283.91;5066776;28;608;-65
2021/05/23 12:12:48;;;;;;;;;;;;;;;21.19;54.31;101277.06;5067366;28;1311;-64
2021/05/23 12:15:33;;;;;;;;;;;;;;;21.18;54.24;101278.03;5067430;28;1444;-64
2021/05/23 12:18:19;;;;;;;;;;;;;;;21.18;54.62;101270.09;5067888;28;1452;-64
2021/05/23 12:21:05;;;;;;;;;;;;;;;21.24;55.81;101275.03;5068195;28;1306;-69
2021/05/23 12:23:53;;;;;;;;;;;;;;;21.21;55.65;101267.25;5068591;28;1126;-65
2021/05/23 12:26:39;;;;;;;;;;;;;;;21.25;56.08;101262.59;5068087;28;1288;-63
2021/05/23 12:29:25;;;;;;;;;;;;;;;21.25;55.61;101258.16;5068127;28;1922;-64
2021/05/23 12:32:10;;;;;;;;;;;;;;;21.28;56.36;101251.81;5068457;28;1369;-64
2021/05/23 12:35:08;;;;;;;;;;;;;;;21.25;56.13;101236.09;5071935;28;675;-64
2021/05/23 12:37:54;;;;;;;;;;;;;;;21.27;55.88;101233.38;5072277;28;1552;-65
2021/05/23 12:40:45;;;;;;;;;;;;;;;21.39;56.76;101230.00;5050508;28;1556;-66
2021/05/23 12:43:33;;;;;;;;;;;;;;;21.40;56.09;101229.06;5064376;28;1135;-64
2021/05/23 12:46:21;;;;;;;;;;;;;;;21.39;56.36;101225.56;5070706;28;1390;-63
2021/05/23 12:49:13;;;;;;;;;;;;;;;21.40;55.94;101218.47;5071014;28;1894;-66
2021/05/23 12:51:59;;;;;;;;;;;;;;;21.39;56.51;101216.75;5050454;28;1169;-64
2021/05/23 12:54:44;;;;;;;;;;;;;;;21.40;56.16;101213.16;5050572;28;719;-63
2021/05/23 12:57:29;;;;;;;;;;;;;;;21.39;56.42;101190.25;5035574;28;1291;-63
2021/05/23 13:00:15;;;;;;;;;;;;;;;21.37;56.38;101190.31;5069890;28;1182;-64
2021/05/23 13:03:01;;;;;;;;;;;;;;;21.42;57.00;101187.41;5070745;28;1128;-61
2021/05/23 13:05:54;;;;;;;;;;;;;;;21.50;57.60;101190.44;5070464;28;1307;-64
2021/05/23 13:08:39;;;;;;;;;;;;;;;21.57;58.05;101183.81;5048748;28;1975;-63
2021/05/23 13:11:25;;;;;;;;;;;;;;;21.57;58.43;101187.31;5054956;28;1391;-65
2021/05/23 13:14:11;;;;;;;;;;;;;;;21.62;57.92;101181.72;5069735;28;1618;-64
2021/05/23 13:16:57;;;;;;;;;;;;;;;21.63;58.71;101186.94;5070249;28;1331;-63
2021/05/23 13:19:43;;;;;;;;;;;;;;;21.66;58.22;101196.50;5069946;28;679;-63
2021/05/23 13:22:29;;;;;;;;;;;;;;;21.78;58.24;101198.38;5069888;28;1436;-65
2021/05/23 13:25:16;;;;;;;;;;;;;;;21.76;58.61;101206.41;5068372;28;1138;-67
2021/05/23 13:28:01;;;;;;;;;;;;;;;21.71;58.46;101202.34;5069146;28;1914;-67
2021/05/23 13:30:47;;;;;;;;;;;;;;;21.66;58.45;101209.75;5068219;28;1303;-67
2021/05/23 13:33:32;;;;;;;;;;;;;;;21.64;58.64;101204.53;5068925;28;1229;-67
2021/05/23 13:36:18;;;;;;;;;;;;;;;21.64;59.02;101199.22;5064663;28;1723;-67
2021/05/23 13:39:06;;;;;;;;;;;;;;;21.61;58.83;101180.84;5068172;28;1033;-67
2021/05/23 13:41:51;;;;;;;;;;;;;;;21.60;59.42;101171.22;5068857;28;1272;-68
2021/05/23 13:44:37;;;;;;;;;;;;;;;21.57;59.41;101165.25;5066104;28;1083;-67
2021/05/23 13:47:22;;;;;;;;;;;;;;;21.57;58.66;101167.91;5067187;28;1902;-68
2021/05/23 13:50:08;;;;;;;;;;;;;;;21.58;58.75;101159.00;5067807;28;1012;-63
2021/05/23 13:52:53;;;;;;;;;;;;;;;21.57;59.10;101158.16;5069275;28;1052;-61
2021/05/23 13:55:40;;;;;;;;;;;;;;;21.57;58.83;101165.25;5066822;28;1308;-62
2021/05/23 13:58:25;;;;;;;;;;;;;;;21.56;59.14;101175.00;5067959;28;1066;-63
2021/05/23 14:01:11;;;;;;;;;;;;;;;21.55;58.97;101183.88;5068492;28;1299;-62
2021/05/23 14:03:57;;;;;;;;;;;;;;;21.54;59.22;101190.16;5066698;28;1064;-61
2021/05/23 14:06:43;;;;;;;;;;;;;;;21.57;57.75;101189.97;5067431;28;1311;-61
2021/05/23 14:09:28;;;;;;;;;;;;;;;21.56;58.68;101187.41;5067259;28;1906;-60
2021/05/23 14:12:13;;;;;;;;;;;;;;;21.59;58.27;101181.91;5053077;28;1407;-65
2021/05/23 14:14:59;;;;;;;;;;;;;;;21.58;58.45;101185.53;5066187;28;1063;-63
2021/05/23 14:17:44;;;;;;;;;;;;;;;21.57;58.76;101174.06;5066638;28;1312;-63
2021/05/23 14:20:30;;;;;;;;;;;;;;;21.55;59.05;101162.69;5067412;28;1408;-61
2021/05/23 14:23:15;;;;;;;;;;;;;;;21.55;59.05;101152.09;5050514;28;1103;-63
2021/05/23 14:26:02;;;;;;;;;;;;;;;21.54;58.70;101152.19;5066308;28;1396;-62
2021/05/23 14:28:47;;;;;;;;;;;;;;;21.53;58.66;101134.56;5066995;28;1902;-63